createdAt,value
2023-02-12T00:00:04.902Z,85.028076
2023-02-12T00:01:14.614Z,85.235596
2023-02-12T00:02:24.387Z,85.339355
2023-02-12T00:03:34.061Z,85.650635
2023-02-12T00:04:42.919Z,85.754395
2023-02-12T00:05:52.871Z,85.961914
2023-02-12T00:07:02.377Z,86.022949
2023-02-12T00:08:12.230Z,86.126709
2023-02-12T00:09:21.891Z,86.022949
2023-02-12T00:10:31.648Z,86.022949
2023-02-12T00:11:41.384Z,85.919189
2023-02-12T00:12:51.183Z,85.919189
2023-02-12T00:14:00.924Z,86.022949
2023-02-12T00:15:10.629Z,86.230469
2023-02-12T00:16:20.406Z,86.437988
2023-02-12T00:17:30.122Z,86.541748
2023-02-12T00:18:39.825Z,86.645508
2023-02-12T00:19:50.538Z,86.749268
2023-02-12T00:21:00.261Z,86.853027
2023-02-12T00:22:10.034Z,87.164307
2023-02-12T00:23:19.759Z,87.268066
2023-02-12T00:24:29.476Z,87.469482
2023-02-12T00:25:39.270Z,87.573242
2023-02-12T00:26:48.966Z,87.615967
2023-02-12T00:27:58.766Z,87.719727
2023-02-12T00:29:08.484Z,87.823486
2023-02-12T00:30:18.185Z,87.719727
2023-02-12T00:31:27.117Z,87.823486
2023-02-12T00:32:36.643Z,88.031006
2023-02-12T00:33:46.399Z,87.927246
2023-02-12T00:34:55.103Z,87.823486
2023-02-12T00:36:04.773Z,87.823486
2023-02-12T00:37:13.423Z,87.719727
2023-02-12T00:38:22.091Z,87.927246
2023-02-12T00:39:31.834Z,88.031006
2023-02-12T00:40:41.548Z,88.238525
2023-02-12T00:41:51.314Z,88.446045
2023-02-12T00:43:01.034Z,88.446045
2023-02-12T00:44:10.707Z,88.653564
2023-02-12T00:45:20.541Z,88.653564
2023-02-12T00:46:30.081Z,88.549805
2023-02-12T00:47:37.681Z,88.653564
2023-02-12T00:48:47.355Z,88.757324
2023-02-12T00:49:56.024Z,88.653564
2023-02-12T00:51:05.845Z,88.653564
2023-02-12T00:52:15.549Z,88.653564
2023-02-12T00:53:25.273Z,88.549805
2023-02-12T00:54:34.975Z,88.549805
2023-02-12T00:55:43.683Z,88.549805
2023-02-12T00:56:51.420Z,88.549805
2023-02-12T00:58:01.136Z,88.549805
2023-02-12T00:59:10.876Z,88.653564
2023-02-12T01:00:19.610Z,88.653564
2023-02-12T01:01:29.408Z,88.653564
2023-02-12T01:02:39.205Z,88.653564
2023-02-12T01:03:48.923Z,88.757324
2023-02-12T01:04:58.753Z,88.653564
2023-02-12T01:06:07.439Z,88.861084
2023-02-12T01:07:17.282Z,88.861084
2023-02-12T01:08:26.201Z,88.757324
2023-02-12T01:09:35.945Z,88.861084
2023-02-12T01:10:45.667Z,88.964844
2023-02-12T01:11:54.379Z,88.964844
2023-02-12T01:13:04.103Z,88.964844
2023-02-12T01:14:12.798Z,89.068604
2023-02-12T01:15:21.459Z,89.276123
2023-02-12T01:16:31.345Z,89.276123
2023-02-12T01:17:39.859Z,89.483643
2023-02-12T01:18:48.530Z,89.581299
2023-02-12T01:19:58.205Z,89.483643
2023-02-12T01:21:07.932Z,89.483643
2023-02-12T01:22:17.675Z,89.483643
2023-02-12T01:23:27.443Z,89.379883
2023-02-12T01:24:35.185Z,89.379883
2023-02-12T01:25:44.880Z,89.276123
2023-02-12T01:26:53.533Z,89.379883
2023-02-12T01:28:03.272Z,89.379883
2023-02-12T01:29:12.896Z,89.379883
2023-02-12T01:30:22.603Z,89.483643
2023-02-12T01:31:32.508Z,89.483643
2023-02-12T01:32:42.130Z,89.581299
2023-02-12T01:33:50.831Z,89.581299
2023-02-12T01:35:00.553Z,89.581299
2023-02-12T01:36:10.221Z,89.581299
2023-02-12T01:37:18.941Z,89.483643
2023-02-12T01:38:28.640Z,89.483643
2023-02-12T01:39:38.371Z,89.483643
2023-02-12T01:40:48.112Z,89.581299
2023-02-12T01:41:57.842Z,89.685059
2023-02-12T01:43:06.580Z,89.788818
2023-02-12T01:44:16.283Z,89.831543
2023-02-12T01:45:25.977Z,89.935303
2023-02-12T01:46:35.675Z,90.039062
2023-02-12T01:47:45.370Z,90.039062
2023-02-12T01:48:53.985Z,90.142822
2023-02-12T01:50:03.714Z,90.142822
2023-02-12T01:51:13.466Z,90.246582
2023-02-12T01:52:23.183Z,90.350342
2023-02-12T01:53:31.918Z,90.454102
2023-02-12T01:54:39.640Z,90.454102
2023-02-12T01:55:49.320Z,90.557861
2023-02-12T01:56:56.951Z,90.557861
2023-02-12T01:58:05.614Z,90.661621
2023-02-12T01:59:14.281Z,90.765381
2023-02-12T02:00:24.152Z,90.869141
2023-02-12T02:01:33.943Z,90.869141
2023-02-12T02:02:42.630Z,90.9729
2023-02-12T02:03:51.388Z,90.869141
2023-02-12T02:05:01.104Z,90.9729
2023-02-12T02:06:09.922Z,91.07666
2023-02-12T02:07:18.766Z,91.07666
2023-02-12T02:08:28.516Z,91.07666
2023-02-12T02:09:38.246Z,91.18042
2023-02-12T02:10:47.977Z,91.28418
2023-02-12T02:11:56.749Z,91.387939
2023-02-12T02:13:06.502Z,91.491699
2023-02-12T02:14:16.303Z,90.661621
2023-02-12T02:15:26.037Z,90.350342
2023-02-12T02:16:35.828Z,90.081787
2023-02-12T02:17:45.566Z,89.978027
2023-02-12T02:18:55.330Z,90.081787
2023-02-12T02:20:05.050Z,90.185547
2023-02-12T02:21:13.199Z,90.185547
2023-02-12T02:22:23.173Z,90.185547
2023-02-12T02:23:32.948Z,90.185547
2023-02-12T02:24:41.705Z,90.081787
2023-02-12T02:25:51.422Z,89.770508
2023-02-12T02:27:01.218Z,89.562988
2023-02-12T02:28:11.001Z,89.459229
2023-02-12T02:29:20.776Z,89.562988
2023-02-12T02:30:30.554Z,89.562988
2023-02-12T02:31:39.352Z,89.978027
2023-02-12T02:32:49.067Z,90.081787
2023-02-12T02:33:58.809Z,90.081787
2023-02-12T02:35:08.486Z,90.081787
2023-02-12T02:36:18.207Z,89.355469
2023-02-12T02:37:28.855Z,88.62915
2023-02-12T02:38:38.518Z,87.591553
2023-02-12T02:39:46.184Z,87.384033
2023-02-12T02:40:54.968Z,87.487793
2023-02-12T02:42:04.705Z,87.426758
2023-02-12T02:43:14.440Z,87.322998
2023-02-12T02:44:24.172Z,86.804199
2023-02-12T02:45:32.855Z,86.2854
2023-02-12T02:46:42.546Z,86.181641
2023-02-12T02:47:52.207Z,86.181641
2023-02-12T02:48:59.869Z,85.870361
2023-02-12T02:50:07.548Z,85.455322
2023-02-12T02:51:17.277Z,85.498047
2023-02-12T02:52:27.066Z,85.498047
2023-02-12T02:53:36.785Z,85.498047
2023-02-12T02:54:46.499Z,85.498047
2023-02-12T02:55:56.628Z,85.394287
2023-02-12T02:57:05.903Z,85.498047
2023-02-12T02:58:13.625Z,85.394287
2023-02-12T02:59:22.277Z,85.498047
2023-02-12T03:00:33.074Z,85.705566
2023-02-12T03:01:42.714Z,85.601807
2023-02-12T03:02:52.447Z,85.601807
2023-02-12T03:04:01.089Z,85.809326
2023-02-12T03:05:10.806Z,85.498047
2023-02-12T03:06:20.458Z,85.498047
2023-02-12T03:07:29.275Z,85.601807
2023-02-12T03:08:37.927Z,85.498047
2023-02-12T03:09:47.670Z,85.394287
2023-02-12T03:10:57.354Z,85.290527
2023-02-12T03:12:06.036Z,85.186768
2023-02-12T03:13:14.720Z,85.083008
2023-02-12T03:14:26.275Z,84.979248
2023-02-12T03:15:37.702Z,84.875488
2023-02-12T03:16:47.479Z,84.771729
2023-02-12T03:17:56.088Z,84.771729
2023-02-12T03:19:05.757Z,84.667969
2023-02-12T03:20:15.429Z,84.667969
2023-02-12T03:21:25.127Z,84.667969
2023-02-12T03:22:34.803Z,84.667969
2023-02-12T03:23:43.505Z,84.667969
2023-02-12T03:24:53.179Z,84.771729
2023-02-12T03:26:00.859Z,84.771729
2023-02-12T03:27:08.554Z,84.875488
2023-02-12T03:28:18.259Z,84.875488
2023-02-12T03:29:26.878Z,84.979248
2023-02-12T03:30:36.569Z,85.083008
2023-02-12T03:31:46.308Z,84.979248
2023-02-12T03:32:55.078Z,84.979248
2023-02-12T03:34:04.765Z,84.875488
2023-02-12T03:35:14.425Z,84.875488
2023-02-12T03:36:23.144Z,84.979248
2023-02-12T03:37:32.893Z,85.083008
2023-02-12T03:38:41.578Z,85.083008
2023-02-12T03:39:51.328Z,85.186768
2023-02-12T03:40:58.973Z,85.083008
2023-02-12T03:42:07.634Z,85.083008
2023-02-12T03:43:17.293Z,85.083008
2023-02-12T03:44:24.999Z,85.186768
2023-02-12T03:45:33.689Z,85.186768
2023-02-12T03:46:43.363Z,85.083008
2023-02-12T03:47:52.038Z,85.186768
2023-02-12T03:49:00.740Z,85.083008
2023-02-12T03:50:10.577Z,85.186768
2023-02-12T03:51:19.252Z,85.083008
2023-02-12T03:52:27.932Z,85.083008
2023-02-12T03:53:36.609Z,85.186768
2023-02-12T03:54:46.320Z,85.186768
2023-02-12T03:55:55.310Z,85.394287
2023-02-12T03:57:02.734Z,85.394287
2023-02-12T03:58:12.541Z,85.186768
2023-02-12T03:59:22.229Z,85.290527
2023-02-12T04:00:30.888Z,85.498047
2023-02-12T04:01:39.713Z,85.394287
2023-02-12T04:02:48.256Z,85.394287
2023-02-12T04:03:57.999Z,85.498047
2023-02-12T04:05:05.636Z,85.601807
2023-02-12T04:06:14.313Z,85.601807
2023-02-12T04:07:24.006Z,85.705566
2023-02-12T04:08:32.722Z,85.601807
2023-02-12T04:09:41.413Z,85.601807
2023-02-12T04:10:51.137Z,85.705566
2023-02-12T04:11:59.780Z,85.705566
2023-02-12T04:13:09.476Z,85.601807
2023-02-12T04:14:17.123Z,85.498047
2023-02-12T04:15:26.795Z,85.498047
2023-02-12T04:16:38.033Z,85.498047
2023-02-12T04:17:46.127Z,85.498047
2023-02-12T04:18:54.834Z,85.601807
2023-02-12T04:20:03.510Z,85.601807
2023-02-12T04:21:12.205Z,85.601807
2023-02-12T04:22:21.869Z,85.601807
2023-02-12T04:23:30.536Z,85.601807
2023-02-12T04:24:40.277Z,85.601807
2023-02-12T04:25:49.948Z,85.601807
2023-02-12T04:26:58.631Z,85.705566
2023-02-12T04:28:07.371Z,85.809326
2023-02-12T04:29:16.008Z,85.809326
2023-02-12T04:30:24.919Z,85.809326
2023-02-12T04:31:33.449Z,85.809326
2023-02-12T04:32:42.058Z,85.809326
2023-02-12T04:33:49.735Z,85.705566
2023-02-12T04:34:59.533Z,85.705566
2023-02-12T04:36:08.211Z,85.705566
2023-02-12T04:37:16.867Z,85.705566
2023-02-12T04:38:25.529Z,85.498047
2023-02-12T04:39:35.306Z,85.498047
2023-02-12T04:40:45.048Z,85.394287
2023-02-12T04:41:54.808Z,85.498047
2023-02-12T04:43:03.542Z,85.498047
2023-02-12T04:44:13.257Z,85.601807
2023-02-12T04:45:22.990Z,85.601807
2023-02-12T04:46:32.682Z,85.394287
2023-02-12T04:47:41.342Z,85.394287
2023-02-12T04:48:49.989Z,85.394287
2023-02-12T04:49:59.642Z,85.394287
2023-02-12T04:51:07.373Z,85.394287
2023-02-12T04:52:16.134Z,85.394287
2023-02-12T04:53:25.886Z,85.394287
2023-02-12T04:54:34.656Z,85.290527
2023-02-12T04:55:44.409Z,85.290527
2023-02-12T04:56:54.164Z,85.083008
2023-02-12T04:58:03.881Z,84.979248
2023-02-12T04:59:13.677Z,84.979248
2023-02-12T05:00:23.412Z,84.979248
2023-02-12T05:01:33.204Z,84.979248
2023-02-12T05:02:42.957Z,84.979248
2023-02-12T05:03:51.721Z,84.979248
2023-02-12T05:05:01.581Z,84.979248
2023-02-12T05:06:11.233Z,85.083008
2023-02-12T05:07:19.985Z,85.083008
2023-02-12T05:08:29.764Z,85.083008
2023-02-12T05:09:39.514Z,85.186768
2023-02-12T05:10:48.265Z,85.327148
2023-02-12T05:11:58.031Z,85.290527
2023-02-12T05:13:07.813Z,85.327148
2023-02-12T05:14:16.632Z,85.430908
2023-02-12T05:15:26.359Z,85.638428
2023-02-12T05:16:36.365Z,85.638428
2023-02-12T05:17:46.133Z,85.742188
2023-02-12T05:18:55.872Z,85.845947
2023-02-12T05:20:05.628Z,85.845947
2023-02-12T05:21:15.374Z,85.949707
2023-02-12T05:22:25.157Z,86.053467
2023-02-12T05:23:34.951Z,86.053467
2023-02-12T05:24:43.677Z,86.260986
2023-02-12T05:25:53.736Z,86.364746
2023-02-12T05:27:03.205Z,86.431885
2023-02-12T05:28:11.947Z,86.572266
2023-02-12T05:29:21.678Z,86.639404
2023-02-12T05:30:31.431Z,86.639404
2023-02-12T05:31:41.312Z,86.639404
2023-02-12T05:32:50.898Z,86.639404
2023-02-12T05:34:00.644Z,86.743164
2023-02-12T05:35:09.363Z,86.743164
2023-02-12T05:36:19.101Z,86.743164
2023-02-12T05:37:28.846Z,86.639404
2023-02-12T05:38:39.637Z,86.639404
2023-02-12T05:39:49.427Z,86.639404
2023-02-12T05:40:59.161Z,86.639404
2023-02-12T05:42:07.921Z,86.639404
2023-02-12T05:43:17.620Z,86.639404
2023-02-12T05:44:27.391Z,86.639404
2023-02-12T05:45:37.123Z,86.639404
2023-02-12T05:46:45.919Z,86.639404
2023-02-12T05:47:55.601Z,86.743164
2023-02-12T05:49:05.401Z,86.743164
2023-02-12T05:50:14.198Z,86.743164
2023-02-12T05:51:23.986Z,86.743164
2023-02-12T05:52:33.721Z,86.743164
2023-02-12T05:53:43.506Z,86.743164
2023-02-12T05:54:52.205Z,86.743164
2023-02-12T05:56:01.953Z,86.846924
2023-02-12T05:57:11.734Z,86.950684
2023-02-12T05:58:21.489Z,86.950684
2023-02-12T05:59:31.215Z,86.950684
2023-02-12T06:00:40.970Z,86.950684
2023-02-12T06:01:50.710Z,86.950684
2023-02-12T06:03:00.567Z,86.950684
2023-02-12T06:04:10.457Z,86.846924
2023-02-12T06:05:20.046Z,86.846924
2023-02-12T06:06:30.846Z,87.054443
2023-02-12T06:07:39.594Z,87.158203
2023-02-12T06:08:49.613Z,87.158203
2023-02-12T06:09:59.336Z,87.158203
2023-02-12T06:11:09.087Z,87.158203
2023-02-12T06:12:18.832Z,87.261963
2023-02-12T06:13:28.515Z,87.261963
2023-02-12T06:14:37.308Z,87.469482
2023-02-12T06:15:47.097Z,88.195801
2023-02-12T06:16:54.795Z,88.40332
2023-02-12T06:18:02.517Z,88.61084
2023-02-12T06:19:12.298Z,89.025879
2023-02-12T06:20:21.077Z,89.233398
2023-02-12T06:21:30.806Z,89.544678
2023-02-12T06:22:39.532Z,89.855957
2023-02-12T06:23:49.285Z,90.478516
2023-02-12T06:24:59.066Z,90.686035
2023-02-12T06:26:07.831Z,91.162109
2023-02-12T06:27:17.627Z,92.199707
2023-02-12T06:28:27.465Z,92.510986
2023-02-12T06:29:37.184Z,92.822266
2023-02-12T06:30:46.979Z,93.127441
2023-02-12T06:31:56.839Z,93.487549
2023-02-12T06:33:06.491Z,93.487549
2023-02-12T06:34:16.236Z,93.591309
2023-02-12T06:35:25.067Z,93.75
2023-02-12T06:36:34.818Z,93.95752
2023-02-12T06:37:44.647Z,93.95752
2023-02-12T06:38:54.377Z,94.061279
2023-02-12T06:40:04.112Z,94.061279
2023-02-12T06:41:13.866Z,94.061279
2023-02-12T06:42:23.661Z,94.165039
2023-02-12T06:43:34.552Z,94.268799
2023-02-12T06:44:44.296Z,94.476318
2023-02-12T06:45:52.039Z,94.476318
2023-02-12T06:47:01.808Z,94.580078
2023-02-12T06:48:11.555Z,94.580078
2023-02-12T06:49:20.330Z,94.580078
2023-02-12T06:50:30.051Z,94.683838
2023-02-12T06:51:38.789Z,94.787598
2023-02-12T06:52:48.547Z,94.891357
2023-02-12T06:53:58.280Z,94.995117
2023-02-12T06:55:07.057Z,95.098877
2023-02-12T06:56:16.768Z,95.098877
2023-02-12T06:57:26.494Z,95.098877
2023-02-12T06:58:36.224Z,95.202637
2023-02-12T06:59:45.984Z,95.410156
2023-02-12T07:00:55.763Z,95.617676
2023-02-12T07:02:05.483Z,95.825195
2023-02-12T07:03:13.189Z,96.032715
2023-02-12T07:04:22.951Z,96.240234
2023-02-12T07:05:32.699Z,96.240234
2023-02-12T07:06:42.458Z,96.447754
2023-02-12T07:07:52.200Z,96.655273
2023-02-12T07:09:02.070Z,96.862793
2023-02-12T07:10:11.857Z,96.862793
2023-02-12T07:11:21.611Z,96.862793
2023-02-12T07:12:31.409Z,96.759033
2023-02-12T07:13:41.176Z,96.966553
2023-02-12T07:14:51.020Z,97.174072
2023-02-12T07:16:00.742Z,97.381592
2023-02-12T07:17:09.454Z,97.485352
2023-02-12T07:18:18.222Z,97.589111
2023-02-12T07:19:27.972Z,97.692871
2023-02-12T07:20:37.707Z,97.692871
2023-02-12T07:21:47.422Z,97.589111
2023-02-12T07:22:56.179Z,97.692871
2023-02-12T07:24:06.202Z,97.796631
2023-02-12T07:25:15.909Z,97.900391
2023-02-12T07:26:25.670Z,97.796631
2023-02-12T07:27:35.415Z,97.692871
2023-02-12T07:28:45.210Z,97.589111
2023-02-12T07:29:54.971Z,97.381592
2023-02-12T07:31:04.787Z,97.235107
2023-02-12T07:32:14.553Z,96.923828
2023-02-12T07:33:24.196Z,96.508789
2023-02-12T07:34:33.950Z,95.88623
2023-02-12T07:35:42.726Z,95.367432
2023-02-12T07:36:52.601Z,94.848633
2023-02-12T07:38:02.375Z,94.744873
2023-02-12T07:39:12.151Z,94.641113
2023-02-12T07:40:19.922Z,93.914795
2023-02-12T07:41:29.753Z,93.603516
2023-02-12T07:42:39.505Z,92.980957
2023-02-12T07:43:48.276Z,92.675781
2023-02-12T07:44:58.014Z,92.675781
2023-02-12T07:46:07.746Z,91.534424
2023-02-12T07:47:17.507Z,90.911865
2023-02-12T07:48:27.293Z,90.911865
2023-02-12T07:49:37.150Z,90.765381
2023-02-12T07:50:46.899Z,90.557861
2023-02-12T07:51:54.690Z,90.142822
2023-02-12T07:53:04.601Z,90.142822
2023-02-12T07:54:14.398Z,90.039062
2023-02-12T07:55:24.135Z,89.935303
2023-02-12T07:56:33.875Z,89.892578
2023-02-12T07:57:42.627Z,89.996338
2023-02-12T07:58:52.422Z,90.307617
2023-02-12T08:00:02.400Z,90.515137
2023-02-12T08:01:11.356Z,90.618896
2023-02-12T08:02:21.267Z,90.826416
2023-02-12T08:03:31.243Z,90.930176
2023-02-12T08:04:40.480Z,91.137695
2023-02-12T08:05:49.332Z,91.094971
2023-02-12T08:06:58.140Z,91.094971
2023-02-12T08:08:06.900Z,90.991211
2023-02-12T08:09:16.847Z,90.783691
2023-02-12T08:10:26.667Z,90.435791
2023-02-12T08:11:36.398Z,90.228271
2023-02-12T08:12:46.138Z,90.228271
2023-02-12T08:13:55.019Z,90.332031
2023-02-12T08:15:04.735Z,90.332031
2023-02-12T08:16:14.832Z,90.533447
2023-02-12T08:17:24.491Z,90.740967
2023-02-12T08:18:34.281Z,90.802002
2023-02-12T08:19:43.213Z,90.905762
2023-02-12T08:20:52.090Z,90.905762
2023-02-12T08:22:02.006Z,90.905762
2023-02-12T08:23:10.881Z,90.905762
2023-02-12T08:24:20.652Z,90.802002
2023-02-12T08:25:30.470Z,90.704346
2023-02-12T08:26:40.194Z,90.600586
2023-02-12T08:27:50.033Z,90.496826
2023-02-12T08:28:58.864Z,90.289307
2023-02-12T08:30:08.683Z,90.289307
2023-02-12T08:31:19.505Z,90.393066
2023-02-12T08:32:29.157Z,90.454102
2023-02-12T08:33:38.948Z,90.454102
2023-02-12T08:34:47.690Z,90.350342
2023-02-12T08:35:59.644Z,90.246582
2023-02-12T08:37:07.128Z,90.246582
2023-02-12T08:38:15.850Z,90.246582
2023-02-12T08:39:26.630Z,90.246582
2023-02-12T08:40:36.358Z,90.246582
2023-02-12T08:41:46.101Z,90.350342
2023-02-12T08:42:55.873Z,90.454102
2023-02-12T08:44:05.828Z,90.454102
2023-02-12T08:45:14.651Z,90.765381
2023-02-12T08:46:24.607Z,90.869141
2023-02-12T08:47:33.235Z,90.9729
2023-02-12T08:48:42.989Z,90.9729
2023-02-12T08:49:52.709Z,90.722656
2023-02-12T08:51:02.502Z,90.722656
2023-02-12T08:52:12.246Z,90.618896
2023-02-12T08:53:22.988Z,90.722656
2023-02-12T08:54:32.858Z,90.515137
2023-02-12T08:55:42.455Z,90.411377
2023-02-12T08:56:51.221Z,90.368652
2023-02-12T08:57:59.969Z,90.264893
2023-02-12T08:59:09.694Z,90.161133
2023-02-12T09:00:18.437Z,90.057373
2023-02-12T09:01:27.236Z,90.057373
2023-02-12T09:02:36.920Z,90.057373
2023-02-12T09:03:45.660Z,89.953613
2023-02-12T09:04:55.374Z,90.161133
2023-02-12T09:06:03.192Z,90.161133
2023-02-12T09:07:11.944Z,90.264893
2023-02-12T09:08:21.657Z,90.222168
2023-02-12T09:09:31.358Z,90.325928
2023-02-12T09:10:41.140Z,90.118408
2023-02-12T09:11:51.041Z,89.813232
2023-02-12T09:13:00.756Z,89.666748
2023-02-12T09:14:10.529Z,89.562988
2023-02-12T09:15:19.275Z,89.355469
2023-02-12T09:16:27.075Z,88.842773
2023-02-12T09:17:36.825Z,88.739014
2023-02-12T09:18:46.609Z,88.696289
2023-02-12T09:19:55.405Z,88.48877
2023-02-12T09:21:05.183Z,88.183594
2023-02-12T09:22:13.929Z,88.079834
2023-02-12T09:23:23.700Z,88.183594
2023-02-12T09:24:32.402Z,88.079834
2023-02-12T09:25:41.137Z,88.48877
2023-02-12T09:26:50.860Z,88.48877
2023-02-12T09:28:00.594Z,88.592529
2023-02-12T09:29:09.243Z,88.452148
2023-02-12T09:30:19.057Z,88.140869
2023-02-12T09:31:29.332Z,87.792969
2023-02-12T09:32:38.810Z,87.481689
2023-02-12T09:33:51.286Z,87.27417
2023-02-12T09:34:57.182Z,87.27417
2023-02-12T09:36:05.866Z,87.37793
2023-02-12T09:37:14.559Z,87.133789
2023-02-12T09:38:23.233Z,86.92627
2023-02-12T09:39:31.947Z,86.682129
2023-02-12T09:40:41.714Z,86.37085
2023-02-12T09:41:51.460Z,86.05957
2023-02-12T09:43:01.256Z,85.614014
2023-02-12T09:44:08.978Z,85.406494
2023-02-12T09:45:18.743Z,85.058594
2023-02-12T09:46:28.462Z,84.643555
2023-02-12T09:47:38.164Z,84.442139
2023-02-12T09:48:46.899Z,84.338379
2023-02-12T09:49:56.590Z,84.094238
2023-02-12T09:51:06.324Z,83.990479
2023-02-12T09:52:16.123Z,83.679199
2023-02-12T09:53:25.878Z,83.679199
2023-02-12T09:54:35.577Z,83.331299
2023-02-12T09:55:45.348Z,83.026123
2023-02-12T09:56:56.081Z,83.129883
2023-02-12T09:58:04.829Z,82.781982
2023-02-12T09:59:14.535Z,82.470703
2023-02-12T10:00:24.337Z,81.958008
2023-02-12T10:01:35.137Z,82.061768
2023-02-12T10:02:44.832Z,81.860352
2023-02-12T10:03:54.701Z,81.341553
2023-02-12T10:05:04.537Z,81.341553
2023-02-12T10:06:15.027Z,81.243896
2023-02-12T10:07:23.693Z,80.792236
2023-02-12T10:08:32.356Z,80.792236
2023-02-12T10:09:42.079Z,80.34668
2023-02-12T10:10:51.801Z,79.626465
2023-02-12T10:12:01.696Z,79.35791
2023-02-12T10:13:11.402Z,79.25415
2023-02-12T10:14:22.892Z,79.455566
2023-02-12T10:15:32.757Z,79.870605
2023-02-12T10:16:42.515Z,79.730225
2023-02-12T10:17:52.304Z,79.180908
2023-02-12T10:19:01.104Z,78.869629
2023-02-12T10:20:10.820Z,78.356934
2023-02-12T10:21:20.571Z,77.984619
2023-02-12T10:22:28.296Z,78.869629
2023-02-12T10:23:38.095Z,78.289795
2023-02-12T10:24:47.860Z,78.942871
2023-02-12T10:25:57.929Z,79.455566
2023-02-12T10:27:07.382Z,79.833984
2023-02-12T10:28:17.262Z,79.486084
2023-02-12T10:29:27.121Z,78.735352
2023-02-12T10:30:36.875Z,77.734375
2023-02-12T10:31:45.777Z,76.367188
2023-02-12T10:32:55.426Z,76.23291
2023-02-12T10:34:05.172Z,75.073242
2023-02-12T10:35:14.983Z,74.353027
2023-02-12T10:36:23.738Z,74.151611
2023-02-12T10:37:32.588Z,74.255371
2023-02-12T10:38:42.280Z,74.21875
2023-02-12T10:39:52.029Z,73.706055
2023-02-12T10:41:01.871Z,73.571777
2023-02-12T10:42:10.578Z,73.364258
2023-02-12T10:43:20.313Z,72.753906
2023-02-12T10:44:30.053Z,72.753906
2023-02-12T10:45:38.785Z,72.650146
2023-02-12T10:46:48.577Z,72.857666
2023-02-12T10:47:58.367Z,72.753906
2023-02-12T10:49:08.147Z,72.857666
2023-02-12T10:50:17.875Z,73.199463
2023-02-12T10:51:27.649Z,73.400879
2023-02-12T10:52:37.655Z,73.199463
2023-02-12T10:53:47.458Z,73.809814
2023-02-12T10:54:57.210Z,73.944092
2023-02-12T10:56:04.966Z,74.188232
2023-02-12T10:57:13.757Z,74.798584
2023-02-12T10:58:23.630Z,74.902344
2023-02-12T10:59:34.960Z,74.761963
2023-02-12T11:00:43.871Z,74.664307
2023-02-12T11:01:53.670Z,74.047852
2023-02-12T11:03:03.468Z,74.21875
2023-02-12T11:04:13.291Z,73.608398
2023-02-12T11:05:23.004Z,73.809814
2023-02-12T11:06:32.805Z,73.706055
2023-02-12T11:07:43.537Z,73.913574
2023-02-12T11:08:52.308Z,74.11499
2023-02-12T11:10:02.127Z,74.456787
2023-02-12T11:11:11.898Z,74.456787
2023-02-12T11:12:21.642Z,74.731445
2023-02-12T11:13:31.405Z,73.913574
2023-02-12T11:14:40.156Z,74.32251
2023-02-12T11:15:49.985Z,74.21875
2023-02-12T11:16:59.749Z,73.913574
2023-02-12T11:18:09.526Z,74.11499
2023-02-12T11:19:19.305Z,74.285889
2023-02-12T11:20:29.060Z,73.33374
2023-02-12T11:21:38.871Z,73.22998
2023-02-12T11:22:48.619Z,72.924805
2023-02-12T11:23:58.367Z,73.126221
2023-02-12T11:25:09.123Z,73.33374
2023-02-12T11:26:18.865Z,72.412109
2023-02-12T11:27:28.653Z,71.905518
2023-02-12T11:28:38.453Z,72.106934
2023-02-12T11:29:48.928Z,71.905518
2023-02-12T11:30:57.964Z,72.137451
2023-02-12T11:32:07.722Z,72.857666
2023-02-12T11:33:17.479Z,73.297119
2023-02-12T11:34:27.264Z,73.4375
2023-02-12T11:35:37.112Z,74.047852
2023-02-12T11:36:46.891Z,73.742676
2023-02-12T11:37:55.600Z,73.638916
2023-02-12T11:39:05.721Z,73.638916
2023-02-12T11:40:15.536Z,73.706055
2023-02-12T11:41:25.310Z,73.608398
2023-02-12T11:42:35.019Z,72.955322
2023-02-12T11:43:44.785Z,72.888184
2023-02-12T11:44:55.589Z,73.028564
2023-02-12T11:46:05.630Z,73.608398
2023-02-12T11:47:15.091Z,73.571777
2023-02-12T11:48:24.859Z,72.210693
2023-02-12T11:49:33.625Z,71.868896
2023-02-12T11:50:42.383Z,70.477295
2023-02-12T11:51:52.164Z,70.037842
2023-02-12T11:53:01.931Z,69.085693
2023-02-12T11:54:11.721Z,68.64624
2023-02-12T11:55:21.424Z,67.596436
2023-02-12T11:56:31.247Z,68.133545
2023-02-12T11:57:40.970Z,68.444824
2023-02-12T11:58:49.854Z,67.797852
2023-02-12T11:59:59.576Z,67.626953
2023-02-12T12:01:09.361Z,68.505859
2023-02-12T12:02:19.214Z,69.354248
2023-02-12T12:03:29.005Z,69.555664
2023-02-12T12:04:38.797Z,69.421387
2023-02-12T12:05:48.515Z,69.085693
2023-02-12T12:06:56.313Z,68.572998
2023-02-12T12:08:05.110Z,68.914795
2023-02-12T12:09:14.860Z,68.914795
2023-02-12T12:10:24.634Z,68.914795
2023-02-12T12:11:34.377Z,68.914795
2023-02-12T12:12:44.154Z,68.914795
2023-02-12T12:13:54.002Z,68.914795
2023-02-12T12:15:04.079Z,69.116211
2023-02-12T12:16:13.848Z,69.018555
2023-02-12T12:17:23.545Z,68.914795
2023-02-12T12:18:34.232Z,68.914795
2023-02-12T12:19:44.025Z,68.609619
2023-02-12T12:20:53.803Z,68.572998
2023-02-12T12:22:02.552Z,68.035889
2023-02-12T12:23:12.257Z,67.730713
2023-02-12T12:24:22.056Z,67.156982
2023-02-12T12:25:29.836Z,66.308594
2023-02-12T12:26:37.649Z,65.435791
2023-02-12T12:27:47.379Z,64.593506
2023-02-12T12:28:57.126Z,64.318848
2023-02-12T12:30:07.010Z,64.117432
2023-02-12T12:31:16.847Z,64.215088
2023-02-12T12:32:26.638Z,63.677979
2023-02-12T12:33:36.394Z,63.677979
2023-02-12T12:34:46.200Z,63.244629
2023-02-12T12:35:56.160Z,62.60376
2023-02-12T12:37:05.559Z,62.402344
2023-02-12T12:38:14.307Z,61.993408
2023-02-12T12:39:24.037Z,62.561035
2023-02-12T12:40:33.801Z,64.147949
2023-02-12T12:41:43.551Z,64.550781
2023-02-12T12:42:53.351Z,64.215088
2023-02-12T12:44:03.153Z,64.715576
2023-02-12T12:45:12.920Z,66.070557
2023-02-12T12:46:22.804Z,66.30249
2023-02-12T12:47:32.573Z,66.845703
2023-02-12T12:48:41.335Z,67.62085
2023-02-12T12:49:51.133Z,68.170166
2023-02-12T12:51:00.840Z,67.321777
2023-02-12T12:52:10.600Z,66.271973
2023-02-12T12:53:19.514Z,65.496826
2023-02-12T12:54:29.347Z,65.362549
2023-02-12T12:55:39.092Z,64.520264
2023-02-12T12:56:48.830Z,63.275146
2023-02-12T12:57:58.624Z,62.530518
2023-02-12T12:59:07.413Z,63.067627
2023-02-12T13:00:19.704Z,62.835693
2023-02-12T13:01:27.909Z,61.590576
2023-02-12T13:02:37.730Z,62.835693
2023-02-12T13:03:47.441Z,62.06665
2023-02-12T13:04:57.242Z,61.529541
2023-02-12T13:06:07.051Z,60.284424
2023-02-12T13:07:16.825Z,61.297607
2023-02-12T13:08:26.677Z,60.894775
2023-02-12T13:09:37.416Z,60.565186
2023-02-12T13:10:47.215Z,60.083008
2023-02-12T13:11:56.084Z,60.388184
2023-02-12T13:13:05.846Z,60.5896